Time;durP1;ratioP1;P1;durP2;ratioP2;P2;SDS_P1;SDS_P2;PMS_P1;PMS_P2;Temp;Humidity;BMP_temperature;BMP_pressure;BME280_temperature;BME280_humidity;BME280_pressure;Samples;Min_cycle;Max_cycle;Signal;HPM_P1;HPM_P2
2022/05/18 00:00:52;;;;;;;5.80;2.00;;;19.10;52.00;;;;;;5074213;28;20036;-71
2022/05/18 00:03:41;;;;;;;7.78;1.92;;;19.10;51.20;;;;;;5074810;28;20111;-71
2022/05/18 00:06:08;;;;;;;7.53;2.05;;;19.10;51.10;;;;;;5057418;28;20495;-71
2022/05/18 00:11:20;;;;;;;5.03;1.83;;;19.10;50.60;;;;;;5076909;28;20043;-71
2022/05/18 00:13:52;;;;;;;4.93;1.83;;;19.10;49.70;;;;;;5074554;28;20032;-71
2022/05/18 00:16:20;;;;;;;6.10;2.05;;;19.10;50.00;;;;;;5092258;28;20028;-71
2022/05/18 00:18:46;;;;;;;9.82;2.80;;;19.20;50.00;;;;;;5057613;28;20166;-75
2022/05/18 00:21:13;;;;;;;;;;;19.20;50.10;;;;;;5074604;28;20032;-77
2022/05/18 00:23:42;;;;;;;4.73;2.30;;;19.20;50.20;;;;;;5073185;28;19920;-75
2022/05/18 00:26:09;;;;;;;5.57;2.13;;;19.20;50.10;;;;;;5073862;28;20047;-75
2022/05/18 00:28:35;;;;;;;4.03;1.92;;;19.20;50.10;;;;;;5074295;28;20400;-74
2022/05/18 00:31:02;;;;;;;4.28;1.90;;;19.10;49.50;;;;;;5074008;28;20075;-72
2022/05/18 00:33:28;;;;;;;6.78;1.83;;;19.10;49.90;;;;;;5074296;28;20036;-71
2022/05/18 00:35:57;;;;;;;6.53;2.38;;;19.10;49.50;;;;;;5057190;28;20036;-75
2022/05/18 00:38:24;;;;;;;5.25;2.30;;;19.20;50.10;;;;;;5056901;28;20508;-76
2022/05/18 00:40:51;;;;;;;6.03;2.00;;;19.20;50.10;;;;;;5091738;28;20036;-76
2022/05/18 00:43:35;;;;;;;6.10;2.08;;;19.10;50.00;;;;;;5074222;28;20024;-76
2022/05/18 00:46:06;;;;;;;4.90;2.08;;;19.10;50.10;;;;;;5091944;28;20029;-71
2022/05/18 00:48:32;;;;;;;3.88;1.67;;;19.10;49.90;;;;;;5074146;28;20039;-71
2022/05/18 00:51:39;;;;;;;6.45;2.33;;;19.20;49.80;;;;;;5057061;28;20051;-71
2022/05/18 00:54:27;;;;;;;5.55;2.13;;;19.20;49.60;;;;;;5073122;28;20501;-76
2022/05/18 00:57:16;;;;;;;5.10;2.25;;;19.20;49.60;;;;;;5091933;28;20069;-76
2022/05/18 00:59:55;;;;;;;4.30;2.03;;;19.20;49.50;;;;;;5074029;28;20028;-76
2022/05/18 01:02:24;;;;;;;4.38;2.10;;;19.10;49.60;;;;;;5073784;28;20036;-76
2022/05/18 01:04:55;;;;;;;4.45;1.95;;;19.10;49.60;;;;;;5057286;28;20503;-73
2022/05/18 01:07:28;;;;;;;4.70;2.05;;;19.10;49.80;;;;;;5073807;28;20435;-76
2022/05/18 01:09:54;;;;;;;8.07;1.92;;;19.10;49.80;;;;;;5056285;28;20036;-76
2022/05/18 01:12:21;;;;;;;;;;;19.00;49.60;;;;;;5092471;28;20044;-76
2022/05/18 01:15:10;;;;;;;4.40;2.08;;;19.00;49.50;;;;;;5074030;28;19920;-76
2022/05/18 01:17:40;;;;;;;4.43;2.00;;;19.00;49.40;;;;;;5093330;28;20032;-72
2022/05/18 01:20:30;;;;;;;5.88;2.15;;;19.00;49.30;;;;;;5077194;28;20085;-72
2022/05/18 01:23:52;;;;;;;6.30;2.72;;;19.00;49.30;;;;;;5077453;28;20427;-76
2022/05/18 01:26:44;;;;;;;4.35;2.10;;;19.00;49.20;;;;;;5095162;28;20060;-76
2022/05/18 01:29:11;;;;;;;4.95;2.40;;;19.00;49.20;;;;;;5077399;28;20120;-72
2022/05/18 01:32:15;;;;;;;5.70;2.60;;;18.90;49.50;;;;;;5076674;28;20073;-76
2022/05/18 01:34:42;;;;;;;5.95;2.20;;;18.90;49.60;;;;;;5077308;28;20047;-76
2022/05/18 01:37:11;;;;;;;6.50;2.65;;;18.80;49.80;;;;;;5095094;28;20031;-78
2022/05/18 01:39:58;;;;;;;5.10;2.28;;;18.80;50.00;;;;;;5076492;28;20110;-73
2022/05/18 01:43:21;;;;;;;5.80;2.45;;;18.80;50.00;;;;;;5076898;28;20485;-72
2022/05/18 01:46:08;;;;;;;4.90;2.50;;;18.70;50.10;;;;;;5094748;28;20085;-72
2022/05/18 01:48:39;;;;;;;4.75;2.22;;;18.60;49.80;;;;;;5076816;28;20036;-75
2022/05/18 01:51:06;;;;;;;6.75;2.60;;;18.60;50.10;;;;;;5076606;28;20032;-73
2022/05/18 01:53:36;;;;;;;6.35;2.53;;;18.50;50.20;;;;;;5076799;28;20032;-72
2022/05/18 01:56:04;;;;;;;5.65;2.70;;;18.40;50.00;;;;;;5076618;28;20036;-77
2022/05/18 01:58:30;;;;;;;6.93;2.75;;;18.40;50.00;;;;;;5076753;28;20127;-72
2022/05/18 02:00:57;;;;;;;9.63;2.83;;;18.40;50.00;;;;;;5076259;28;20396;-72
2022/05/18 02:03:23;;;;;;;;;;;18.40;50.00;;;;;;5095219;28;20111;-72
2022/05/18 02:05:52;;;;;;;4.70;2.50;;;18.30;49.90;;;;;;5076368;28;19919;-76
2022/05/18 02:08:21;;;;;;;5.75;2.75;;;18.20;50.00;;;;;;5076720;28;20037;-72
2022/05/18 02:10:47;;;;;;;11.10;3.10;;;18.20;50.20;;;;;;5075478;28;20036;-76
2022/05/18 02:13:16;;;;;;;;;;;18.20;50.50;;;;;;5095587;28;20047;-76
2022/05/18 02:15:43;;;;;;;7.60;3.25;;;18.10;50.20;;;;;;5076170;28;20291;-76
2022/05/18 02:18:10;;;;;;;6.72;2.70;;;18.00;50.60;;;;;;5076411;28;20477;-77
2022/05/18 02:20:37;;;;;;;6.15;3.03;;;18.00;50.30;;;;;;5075949;28;20036;-75
2022/05/18 02:23:03;;;;;;;9.75;3.17;;;18.00;50.80;;;;;;5076403;28;20055;-72
2022/05/18 02:25:32;;;;;;;13.77;3.45;;;18.00;50.70;;;;;;5074777;28;20056;-72
2022/05/18 02:27:59;;;;;;;7.88;3.42;;;18.00;50.70;;;;;;5076916;28;20039;-76
2022/05/18 02:30:26;;;;;;;8.30;3.03;;;17.90;50.50;;;;;;5074612;28;20077;-72
2022/05/18 02:32:52;;;;;;;6.30;3.15;;;17.90;50.50;;;;;;5076316;28;20114;-77
2022/05/18 02:35:19;;;;;;;7.97;3.00;;;17.90;50.60;;;;;;5075814;28;20032;-72
2022/05/18 02:37:45;;;;;;;7.32;3.40;;;17.90;50.60;;;;;;5059382;28;20377;-72
2022/05/18 02:40:12;;;;;;;8.43;3.53;;;17.80;50.60;;;;;;5054620;28;20060;-71
2022/05/18 02:42:38;;;;;;;6.22;3.28;;;17.80;50.70;;;;;;5056086;28;20078;-72
2022/05/18 02:45:07;;;;;;;7.28;3.55;;;17.80;50.80;;;;;;5055605;28;20449;-77
2022/05/18 02:47:33;;;;;;;7.47;3.53;;;17.70;50.60;;;;;;5055883;28;20039;-78
2022/05/18 02:50:01;;;;;;;;;;;17.80;50.70;;;;;;5056358;28;20032;-76
2022/05/18 02:52:35;;;;;;;7.90;2.90;;;17.80;50.50;;;;;;5072018;28;20009;-72
2022/05/18 02:57:47;;;;;;;9.05;3.47;;;17.70;50.40;;;;;;5078569;28;20397;-72
2022/05/18 03:00:14;;;;;;;6.00;3.15;;;17.80;50.30;;;;;;5058364;28;20061;-73
2022/05/18 03:02:40;;;;;;;6.00;2.80;;;17.80;50.30;;;;;;5094064;28;20043;-72
2022/05/18 03:05:07;;;;;;;6.65;2.80;;;17.80;50.20;;;;;;5093435;28;20077;-72
2022/05/18 03:07:36;;;;;;;10.38;3.78;;;17.80;49.90;;;;;;5058516;28;20051;-77
2022/05/18 03:10:03;;;;;;;8.30;3.15;;;17.90;50.00;;;;;;5074400;28;20036;-76
2022/05/18 03:12:29;;;;;;;12.70;3.78;;;17.90;49.90;;;;;;5058298;28;20028;-77
2022/05/18 03:14:55;;;;;;;10.10;3.00;;;17.90;50.00;;;;;;5075337;28;20489;-72
2022/05/18 03:17:21;;;;;;;10.20;4.00;;;17.90;49.40;;;;;;5074796;28;20036;-72
2022/05/18 03:19:47;;;;;;;7.45;3.05;;;18.00;50.00;;;;;;5093290;28;20090;-72
2022/05/18 03:24:58;;;;;;;9.95;4.10;;;18.00;49.70;;;;;;5077070;28;19926;-72
2022/05/18 03:27:24;;;;;;;10.45;3.30;;;18.00;49.80;;;;;;5074768;28;20048;-72
2022/05/18 03:29:50;;;;;;;;;;;17.90;49.80;;;;;;5075624;28;20032;-72
2022/05/18 03:32:16;;;;;;;11.02;3.33;;;17.90;49.70;;;;;;5074864;28;20192;-72
2022/05/18 03:34:44;;;;;;;12.32;3.60;;;17.90;49.80;;;;;;5058189;28;20497;-72
2022/05/18 03:37:10;;;;;;;8.05;2.90;;;17.90;49.80;;;;;;5070644;28;20123;-74
2022/05/18 03:39:37;;;;;;;13.13;3.30;;;17.90;49.80;;;;;;5073926;28;20505;-72
2022/05/18 03:42:03;;;;;;;6.13;2.85;;;17.90;49.70;;;;;;5057375;28;20313;-77
2022/05/18 03:44:29;;;;;;;12.95;3.10;;;18.00;49.20;;;;;;5074821;28;20111;-76
2022/05/18 03:46:56;;;;;;;5.18;2.80;;;17.90;49.70;;;;;;5092754;28;20036;-73
2022/05/18 03:49:22;;;;;;;6.57;3.10;;;17.90;49.70;;;;;;5074788;28;20123;-77
2022/05/18 03:51:49;;;;;;;;;;;17.90;49.20;;;;;;5093159;28;20469;-73
2022/05/18 03:54:16;;;;;;;13.93;3.65;;;17.90;49.40;;;;;;5074877;28;19959;-77
2022/05/18 03:56:42;;;;;;;7.05;3.10;;;17.90;49.60;;;;;;5073334;28;20036;-72
2022/05/18 03:59:08;;;;;;;8.95;3.33;;;17.90;49.20;;;;;;5092624;28;20066;-77
2022/05/18 04:01:37;;;;;;;6.70;2.97;;;17.90;49.70;;;;;;5092336;28;20046;-76
2022/05/18 04:04:05;;;;;;;6.75;2.85;;;18.00;49.70;;;;;;5074647;28;20040;-77
2022/05/18 04:06:32;;;;;;;9.57;3.08;;;18.00;49.70;;;;;;5074094;28;20039;-72
2022/05/18 04:08:57;;;;;;;;;;;18.00;49.60;;;;;;5075203;28;20622;-72
2022/05/18 04:11:24;;;;;;;11.00;3.08;;;18.00;49.50;;;;;;5091325;28;19920;-76
2022/05/18 04:13:50;;;;;;;;;;;18.00;49.60;;;;;;5058574;28;20039;-73
2022/05/18 04:16:17;;;;;;;12.27;2.97;;;18.00;49.40;;;;;;5057657;28;19916;-76
2022/05/18 04:18:48;;;;;;;10.88;2.90;;;18.00;49.40;;;;;;5074538;28;20066;-77
2022/05/18 04:21:14;;;;;;;11.13;3.00;;;18.10;49.40;;;;;;5092273;28;20126;-72
2022/05/18 04:23:41;;;;;;;;;;;18.10;49.50;;;;;;5058072;28;20538;-76
2022/05/18 04:26:09;;;;;;;11.40;3.67;;;18.10;48.80;;;;;;5065105;28;19927;-72
2022/05/18 04:28:36;;;;;;;13.82;3.72;;;18.10;49.40;;;;;;5054315;28;20044;-72
2022/05/18 04:31:03;;;;;;;11.85;2.95;;;18.00;49.30;;;;;;5037429;28;20037;-72
2022/05/18 04:33:29;;;;;;;10.57;3.10;;;18.10;49.60;;;;;;5072222;28;20028;-76
2022/05/18 04:35:56;;;;;;;10.55;3.63;;;18.10;49.70;;;;;;5053940;28;20039;-76
2022/05/18 04:38:23;;;;;;;12.05;3.33;;;18.10;49.60;;;;;;5037462;28;20039;-71
2022/05/18 04:40:49;;;;;;;18.70;3.95;;;18.10;49.00;;;;;;5052911;28;20041;-75
2022/05/18 04:43:34;;;;;;;9.88;3.00;;;18.10;48.70;;;;;;5053266;28;20473;-75
2022/05/18 04:46:06;;;;;;;10.60;2.80;;;18.10;49.10;;;;;;5071590;28;20033;-71
2022/05/18 04:48:33;;;;;;;30.85;4.18;;;18.20;48.70;;;;;;5053782;28;20037;-77
2022/05/18 04:51:04;;;;;;;10.75;2.70;;;18.20;48.30;;;;;;5053897;28;20040;-76
2022/05/18 04:53:50;;;;;;;7.75;3.55;;;18.30;48.10;;;;;;5057292;28;20478;-76
2022/05/18 04:56:17;;;;;;;7.90;3.10;;;18.40;47.80;;;;;;5056771;28;20481;-71
2022/05/18 04:58:43;;;;;;;9.68;2.70;;;18.30;47.90;;;;;;5058082;28;20040;-76
2022/05/18 05:01:10;;;;;;;6.75;2.85;;;18.30;48.10;;;;;;5057247;28;20037;-76
2022/05/18 05:03:37;;;;;;;7.38;2.67;;;18.20;48.10;;;;;;5057606;28;20490;-76
2022/05/18 05:06:05;;;;;;;8.25;2.88;;;18.20;48.20;;;;;;5040489;28;20508;-76
2022/05/18 05:08:34;;;;;;;8.45;3.20;;;18.10;48.60;;;;;;5057831;28;20119;-72
2022/05/18 05:11:01;;;;;;;8.00;2.88;;;18.10;48.30;;;;;;5074545;28;20139;-71
2022/05/18 05:13:27;;;;;;;6.82;2.78;;;18.00;48.80;;;;;;5041007;28;20047;-75
2022/05/18 05:16:11;;;;;;;;;;;18.00;48.30;;;;;;5057810;28;20029;-72
2022/05/18 05:18:39;;;;;;;9.32;2.78;;;18.10;48.70;;;;;;5075402;28;19962;-71
2022/05/18 05:21:05;;;;;;;7.45;3.00;;;18.10;48.70;;;;;;5056752;28;20044;-76
2022/05/18 05:23:32;;;;;;;7.53;2.58;;;18.30;48.70;;;;;;5057218;28;20473;-72
2022/05/18 05:25:59;;;;;;;6.60;3.45;;;18.40;47.90;;;;;;5046107;28;20497;-76
2022/05/18 05:28:32;;;;;;;9.75;4.05;;;18.50;47.60;;;;;;5077405;28;20047;-77
2022/05/18 05:31:17;;;;;;;14.88;4.20;;;18.70;47.30;;;;;;5078037;28;20028;-76
2022/05/18 05:33:43;;;;;;;7.90;2.70;;;18.80;47.30;;;;;;5095435;28;20562;-76
2022/05/18 05:36:18;;;;;;;7.28;2.65;;;18.90;47.00;;;;;;5077017;28;20105;-76
2022/05/18 05:38:44;;;;;;;10.07;2.33;;;19.10;46.70;;;;;;5060450;28;20027;-76
2022/05/18 05:41:13;;;;;;;8.05;2.45;;;19.30;46.50;;;;;;5094016;28;20052;-72
2022/05/18 05:43:41;;;;;;;28.77;4.05;;;19.50;45.90;;;;;;5060268;28;20127;-72
2022/05/18 05:46:13;;;;;;;7.40;2.67;;;19.60;45.70;;;;;;5094708;28;20055;-71
2022/05/18 05:48:42;;;;;;;9.00;3.15;;;19.80;45.20;;;;;;5077167;28;20115;-76
2022/05/18 05:53:54;;;;;;;12.50;2.85;;;20.00;44.70;;;;;;5079710;28;20062;-72
2022/05/18 05:56:21;;;;;;;5.35;2.53;;;20.20;44.50;;;;;;5075693;28;20044;-72
2022/05/18 05:58:49;;;;;;;6.22;2.53;;;20.20;43.70;;;;;;5076713;28;20078;-76
2022/05/18 06:01:17;;;;;;;6.57;2.47;;;20.30;43.90;;;;;;5076382;28;20492;-72
2022/05/18 06:03:43;;;;;;;6.63;2.58;;;20.40;43.40;;;;;;5094649;28;20036;-76
2022/05/18 06:06:10;;;;;;;10.60;3.15;;;20.40;43.40;;;;;;5059631;28;20059;-76
2022/05/18 06:08:37;;;;;;;7.63;2.60;;;20.40;43.50;;;;;;5059873;28;20124;-72
2022/05/18 06:11:04;;;;;;;5.60;2.65;;;20.40;43.50;;;;;;5058725;28;20185;-72
2022/05/18 06:13:32;;;;;;;9.10;2.80;;;20.40;43.10;;;;;;5059832;28;20127;-77
2022/05/18 06:15:59;;;;;;;8.50;2.92;;;20.40;43.30;;;;;;5059604;28;20035;-77
2022/05/18 06:18:26;;;;;;;12.05;3.05;;;20.40;42.90;;;;;;5076305;28;20032;-77
2022/05/18 06:20:56;;;;;;;8.93;3.25;;;20.40;42.90;;;;;;5076048;28;20040;-73
2022/05/18 06:23:25;;;;;;;8.23;3.15;;;20.40;42.70;;;;;;5076688;28;20069;-72
2022/05/18 06:26:10;;;;;;;5.82;2.55;;;20.30;42.60;;;;;;5075364;28;20405;-72
2022/05/18 06:28:37;;;;;;;7.07;2.60;;;20.30;42.80;;;;;;5073994;28;20112;-77
2022/05/18 06:31:04;;;;;;;12.27;3.53;;;20.40;43.20;;;;;;5073776;28;20429;-72
2022/05/18 06:33:31;;;;;;;10.70;3.45;;;20.40;42.70;;;;;;5074072;28;20102;-72
2022/05/18 06:35:57;;;;;;;8.25;2.78;;;20.40;42.30;;;;;;5039088;28;20033;-72
2022/05/18 06:38:25;;;;;;;8.70;3.03;;;20.50;42.90;;;;;;5056023;28;20036;-77
2022/05/18 06:43:38;;;;;;;8.13;2.75;;;20.50;42.40;;;;;;5058726;28;20539;-73
2022/05/18 06:46:04;;;;;;;11.43;2.60;;;20.60;42.60;;;;;;5039099;28;20044;-77
2022/05/18 06:48:34;;;;;;;10.68;2.88;;;20.70;42.70;;;;;;5055854;28;20040;-71
2022/05/18 06:51:00;;;;;;;22.45;4.10;;;20.80;41.90;;;;;;5071947;28;20032;-72
2022/05/18 06:53:29;;;;;;;;;;;20.90;41.30;;;;;;5056307;28;20101;-76
2022/05/18 06:55:55;;;;;;;6.80;3.03;;;21.00;41.50;;;;;;5073193;28;19943;-72
2022/05/18 06:58:22;;;;;;;;;;;21.10;41.70;;;;;;5053874;28;20082;-76
2022/05/18 07:00:51;;;;;;;6.35;2.85;;;21.30;41.70;;;;;;5073155;28;20011;-73
2022/05/18 07:03:17;;;;;;;7.43;2.83;;;21.30;41.00;;;;;;5055500;28;20469;-72
2022/05/18 07:05:44;;;;;;;6.95;2.35;;;21.40;41.00;;;;;;5054987;28;20044;-72
2022/05/18 07:08:10;;;;;;;7.85;3.03;;;21.50;40.80;;;;;;5055350;28;20029;-73
2022/05/18 07:10:37;;;;;;;8.77;2.40;;;21.60;40.10;;;;;;5072851;28;20036;-76
2022/05/18 07:13:06;;;;;;;10.57;2.67;;;21.70;40.40;;;;;;5087592;28;20477;-72
2022/05/18 07:15:32;;;;;;;7.90;2.65;;;21.80;40.80;;;;;;5074416;28;20040;-77
2022/05/18 07:17:59;;;;;;;;;;;21.80;40.40;;;;;;5075838;28;20474;-77
2022/05/18 07:20:27;;;;;;;8.27;2.80;;;21.80;41.00;;;;;;5092964;28;19924;-73
2022/05/18 07:22:53;;;;;;;7.43;3.05;;;21.70;40.00;;;;;;5075399;28;20468;-72
2022/05/18 07:25:19;;;;;;;5.28;2.45;;;21.80;40.70;;;;;;5092647;28;20032;-72
2022/05/18 07:27:45;;;;;;;;;;;21.80;40.30;;;;;;5074808;28;20040;-73
2022/05/18 07:30:13;;;;;;;7.68;2.40;;;21.90;40.70;;;;;;5058217;28;19938;-73
2022/05/18 07:32:49;;;;;;;8.73;2.70;;;22.00;39.80;;;;;;5075160;28;20071;-77
2022/05/18 07:35:16;;;;;;;5.05;2.40;;;22.00;40.10;;;;;;5074648;28;20126;-77
2022/05/18 07:37:42;;;;;;;10.45;2.97;;;22.00;40.20;;;;;;5058341;28;20033;-77
2022/05/18 07:40:22;;;;;;;9.15;2.90;;;22.00;40.00;;;;;;5074464;28;20058;-78
2022/05/18 07:42:48;;;;;;;6.85;2.97;;;22.10;39.50;;;;;;5092115;28;20125;-73
2022/05/18 07:45:14;;;;;;;;;;;22.20;39.70;;;;;;5075342;28;20051;-73
2022/05/18 07:47:40;;;;;;;9.88;3.17;;;22.20;39.90;;;;;;5074918;28;19915;-78
2022/05/18 07:50:07;;;;;;;8.18;2.85;;;22.30;39.90;;;;;;5074499;28;20028;-74
2022/05/18 07:52:33;;;;;;;11.10;3.10;;;22.30;39.50;;;;;;5092727;28;20060;-78
2022/05/18 07:55:00;;;;;;;7.80;3.22;;;22.30;39.30;;;;;;5093250;28;20047;-73
2022/05/18 07:57:26;;;;;;;7.88;2.78;;;22.40;38.90;;;;;;5073406;28;20043;-73
2022/05/18 08:00:11;;;;;;;;;;;22.50;38.70;;;;;;5075355;28;20036;-78
2022/05/18 08:02:38;;;;;;;7.40;2.53;;;22.50;38.80;;;;;;5074818;28;19923;-73
2022/05/18 08:05:06;;;;;;;7.82;2.67;;;22.60;38.10;;;;;;5074810;28;20042;-72
2022/05/18 08:07:32;;;;;;;6.90;2.38;;;22.60;38.10;;;;;;5057816;28;20078;-73
2022/05/18 08:15:33;;;;;;;6.03;2.72;;;22.80;37.90;;;;;;5076998;28;20417;-72
2022/05/18 08:17:59;;;;;;;10.30;2.90;;;22.90;37.70;;;;;;5074374;28;20047;-73
2022/05/18 08:20:25;;;;;;;9.05;2.88;;;22.90;37.30;;;;;;5074098;28;20036;-78
2022/05/18 08:22:52;;;;;;;6.07;2.55;;;23.10;37.50;;;;;;5074544;28;20028;-77
2022/05/18 08:25:19;;;;;;;10.40;2.88;;;23.20;36.90;;;;;;5073941;28;20032;-77
2022/05/18 08:27:48;;;;;;;7.78;2.80;;;23.40;36.70;;;;;;5077057;28;20043;-78
2022/05/18 08:30:20;;;;;;;10.02;2.70;;;23.40;36.50;;;;;;5078380;28;20031;-77
2022/05/18 08:32:47;;;;;;;11.30;3.10;;;23.80;36.10;;;;;;5061505;28;20063;-78
2022/05/18 08:35:14;;;;;;;7.22;3.50;;;24.20;35.60;;;;;;5078318;28;20037;-78
2022/05/18 08:37:59;;;;;;;12.07;4.05;;;24.60;34.80;;;;;;5096409;28;20047;-73
2022/05/18 08:41:24;;;;;;;8.85;2.47;;;25.10;34.30;;;;;;5077917;28;20036;-78
2022/05/18 08:44:36;;;;;;;7.10;2.72;;;25.60;33.90;;;;;;5095689;28;20075;-80
2022/05/18 08:47:41;;;;;;;5.78;2.35;;;26.30;32.80;;;;;;5095961;28;20036;-73
2022/05/18 08:50:20;;;;;;;7.20;2.90;;;27.10;31.90;;;;;;5077871;28;20038;-80
2022/05/18 08:53:42;;;;;;;11.07;2.67;;;27.60;30.30;;;;;;5061339;28;20032;-79
2022/05/18 08:56:18;;;;;;;6.05;2.35;;;27.60;30.50;;;;;;5095835;28;20094;-73
2022/05/18 08:59:07;;;;;;;6.18;3.00;;;28.50;29.40;;;;;;5095340;28;20210;-73
2022/05/18 09:01:40;;;;;;;8.68;2.53;;;29.10;28.50;;;;;;5077723;28;20090;-74
2022/05/18 09:04:15;;;;;;;4.28;2.10;;;29.50;26.60;;;;;;5061260;28;20031;-80
2022/05/18 09:07:04;;;;;;;8.07;2.40;;;29.40;26.50;;;;;;5077607;28;20118;-74
2022/05/18 09:12:46;;;;;;;11.32;2.30;;;30.90;24.50;;;;;;5095087;28;20096;-79
2022/05/18 09:15:18;;;;;;;5.38;1.80;;;31.90;23.70;;;;;;5077497;28;20040;-74
2022/05/18 09:18:22;;;;;;;5.28;2.05;;;32.60;22.80;;;;;;5077736;28;20115;-79
2022/05/18 09:21:29;;;;;;;6.45;2.10;;;33.20;22.40;;;;;;5095220;28;20078;-74
2022/05/18 09:24:34;;;;;;;4.85;1.50;;;33.90;22.10;;;;;;5095524;28;20123;-73
2022/05/18 09:27:33;;;;;;;4.38;1.67;;;34.30;21.60;;;;;;5077101;28;20059;-79
2022/05/18 09:30:14;;;;;;;4.80;1.88;;;34.10;20.80;;;;;;5095943;28;20036;-80
2022/05/18 09:33:35;;;;;;;4.97;2.00;;;34.30;20.30;;;;;;5095300;28;20035;-74
2022/05/18 09:36:17;;;;;;;4.75;1.80;;;34.90;20.00;;;;;;5094801;28;20048;-74
2022/05/18 09:39:10;;;;;;;5.65;2.00;;;35.10;19.00;;;;;;5076551;28;20081;-79
2022/05/18 09:41:45;;;;;;;4.45;1.80;;;35.70;19.10;;;;;;5076692;28;20587;-79
2022/05/18 09:44:49;;;;;;;5.25;1.85;;;35.60;18.10;;;;;;5076329;28;20036;-74
2022/05/18 09:47:41;;;;;;;5.95;1.85;;;34.80;18.30;;;;;;5094860;28;20093;-73
2022/05/18 09:50:09;;;;;;;7.63;1.65;;;34.20;18.20;;;;;;5077055;28;20093;-80
2022/05/18 09:52:39;;;;;;;5.30;1.60;;;35.00;17.80;;;;;;5095049;28;20085;-80
2022/05/18 09:55:10;;;;;;;5.60;2.03;;;34.90;16.90;;;;;;5076376;28;20044;-74
2022/05/18 09:58:19;;;;;;;4.70;1.52;;;34.80;16.80;;;;;;5095027;28;20085;-74
2022/05/18 10:00:46;;;;;;;3.80;1.73;;;35.90;17.00;;;;;;5056191;28;20097;-80
2022/05/18 10:09:55;;;;;;;5.97;1.70;;;35.40;17.20;;;;;;5059024;28;20086;-80
2022/05/18 10:13:04;;;;;;;10.85;4.15;;;36.80;17.10;;;;;;5056005;28;20154;-80
2022/05/18 10:15:49;;;;;;;4.30;1.75;;;37.90;16.50;;;;;;5056625;28;20067;-79
2022/05/18 10:18:53;;;;;;;4.05;1.70;;;38.80;15.30;;;;;;5039597;28;20413;-73
2022/05/18 10:21:31;;;;;;;6.40;1.75;;;38.80;15.40;;;;;;5055911;28;20040;-79
2022/05/18 10:24:34;;;;;;;6.03;1.83;;;39.90;14.40;;;;;;5074420;28;20481;-79
2022/05/18 10:27:16;;;;;;;4.40;1.77;;;40.50;13.90;;;;;;5073827;28;20060;-78
2022/05/18 10:29:45;;;;;;;4.10;1.88;;;40.30;14.00;;;;;;5070215;28;20062;-73
2022/05/18 10:32:22;;;;;;;7.55;1.70;;;40.80;13.20;;;;;;5059031;28;20036;-74
2022/05/18 10:34:52;;;;;;;5.05;1.80;;;41.20;13.10;;;;;;5076224;28;20044;-74
2022/05/18 10:37:39;;;;;;;4.97;2.08;;;41.80;12.40;;;;;;5075845;28;20075;-74
2022/05/18 10:40:23;;;;;;;4.55;1.80;;;42.30;12.70;;;;;;5094323;28;20047;-77
2022/05/18 10:42:55;;;;;;;4.15;1.85;;;42.30;12.60;;;;;;5076031;28;20036;-79
2022/05/18 10:45:52;;;;;;;7.20;1.70;;;43.10;11.90;;;;;;5058039;28;20500;-74
2022/05/18 10:48:27;;;;;;;5.97;2.30;;;43.80;11.60;;;;;;5075797;28;20028;-80
2022/05/18 10:51:14;;;;;;;6.68;2.38;;;44.40;11.20;;;;;;5074756;28;20032;-80
2022/05/18 10:54:37;;;;;;;3.42;1.60;;;44.70;11.20;;;;;;5075834;28;20500;-79
2022/05/18 10:57:48;;;;;;;5.43;2.80;;;45.30;10.70;;;;;;5093503;28;20081;-78
2022/05/18 11:00:20;;;;;;;13.52;2.58;;;45.90;10.40;;;;;;5074327;28;20044;-77
2022/05/18 11:03:23;;;;;;;6.55;2.58;;;46.70;9.60;;;;;;5075936;28;20063;-78
2022/05/18 11:06:28;;;;;;;3.65;1.80;;;47.30;10.30;;;;;;5093292;28;20043;-78
2022/05/18 11:09:00;;;;;;;9.60;2.20;;;47.80;9.40;;;;;;5093801;28;20542;-73
2022/05/18 11:12:03;;;;;;;4.45;2.00;;;48.10;8.90;;;;;;5075293;28;20065;-74
2022/05/18 11:15:07;;;;;;;5.95;2.33;;;47.60;9.70;;;;;;5074573;28;20028;-74
2022/05/18 11:18:29;;;;;;;5.53;2.10;;;48.30;9.40;;;;;;5075184;28;20028;-76
2022/05/18 11:21:05;;;;;;;8.45;1.90;;;48.80;9.20;;;;;;5093083;28;20040;-76
2022/05/18 11:24:07;;;;;;;2.88;1.75;;;49.10;8.80;;;;;;5093249;28;20524;-74
2022/05/18 11:27:30;;;;;;;3.97;1.75;;;49.50;8.80;;;;;;5074727;28;20047;-73
2022/05/18 11:30:14;;;;;;;4.53;2.03;;;49.80;8.30;;;;;;5092786;28;20032;-73
2022/05/18 11:33:37;;;;;;;4.72;2.40;;;50.20;8.30;;;;;;5075287;28;20047;-76
2022/05/18 11:36:32;;;;;;;14.63;4.10;;;50.60;8.10;;;;;;5092886;28;20487;-76
2022/05/18 11:39:39;;;;;;;8.60;2.20;;;50.50;7.60;;;;;;5093258;28;20035;-77
2022/05/18 11:42:43;;;;;;;4.43;2.03;;;50.10;8.00;;;;;;5092707;28;20039;-76
2022/05/18 11:45:48;;;;;;;6.97;2.00;;;50.70;7.70;;;;;;5073915;28;20036;-73
2022/05/18 11:48:54;;;;;;;4.82;2.10;;;50.70;7.30;;;;;;5058102;28;20400;-73
2022/05/18 11:51:58;;;;;;;7.57;2.75;;;51.20;7.50;;;;;;5092555;28;20369;-73
2022/05/18 11:55:01;;;;;;;15.20;3.45;;;50.60;7.40;;;;;;5092842;28;20036;-76
2022/05/18 11:57:57;;;;;;;3.85;2.28;;;50.90;7.50;;;;;;5092587;28;20040;-73
2022/05/18 12:00:55;;;;;;;8.80;2.33;;;51.40;7.10;;;;;;5073478;28;20040;-76
2022/05/18 12:03:54;;;;;;;5.70;2.30;;;51.70;6.90;;;;;;5092767;28;20036;-73
2022/05/18 12:06:42;;;;;;;3.70;1.90;;;51.80;6.80;;;;;;5092495;28;20036;-76
2022/05/18 12:10:05;;;;;;;3.67;2.17;;;52.30;6.90;;;;;;5092897;28;20036;-73
2022/05/18 12:13:06;;;;;;;3.08;2.28;;;52.80;7.00;;;;;;5092432;28;20040;-76
2022/05/18 12:16:21;;;;;;;8.68;2.60;;;52.50;6.60;;;;;;5059828;28;20044;-75
2022/05/18 12:19:21;;;;;;;3.27;2.30;;;52.80;6.80;;;;;;5072461;28;20385;-73
2022/05/18 12:21:59;;;;;;;5.43;2.50;;;52.70;6.60;;;;;;5053948;28;20494;-74
2022/05/18 12:24:28;;;;;;;5.88;2.65;;;52.90;6.30;;;;;;5054360;28;20478;-73
2022/05/18 12:26:56;;;;;;;6.22;2.60;;;52.80;6.30;;;;;;5053911;28;20048;-76
2022/05/18 12:29:27;;;;;;;3.58;2.58;;;52.80;6.00;;;;;;5057310;28;20089;-73
2022/05/18 12:31:56;;;;;;;5.82;2.40;;;52.40;5.80;;;;;;5074146;28;20032;-74
2022/05/18 12:35:18;;;;;;;4.95;2.47;;;52.10;5.90;;;;;;5057458;28;20119;-77
2022/05/18 12:38:03;;;;;;;4.75;2.30;;;51.90;5.80;;;;;;5092468;28;20401;-76
2022/05/18 12:41:10;;;;;;;3.33;2.40;;;51.90;5.70;;;;;;5073802;28;20081;-76
2022/05/18 12:43:44;;;;;;;3.53;2.60;;;52.10;6.20;;;;;;5092423;28;20068;-73
2022/05/18 12:46:16;;;;;;;3.87;2.60;;;52.80;5.60;;;;;;5091226;28;20473;-73
2022/05/18 12:48:53;;;;;;;5.75;2.35;;;52.90;5.60;;;;;;5092127;28;20052;-76
2022/05/18 12:54:23;;;;;;;6.20;2.97;;;52.90;5.80;;;;;;5092282;28;20043;-73
2022/05/18 12:57:16;;;;;;;4.30;2.40;;;52.70;6.00;;;;;;5073836;28;20374;-73
2022/05/18 12:59:56;;;;;;;6.63;2.55;;;52.40;5.80;;;;;;5056195;28;20032;-73
2022/05/18 13:02:52;;;;;;;4.95;2.33;;;52.10;5.90;;;;;;5091889;28;20043;-75
2022/05/18 13:05:56;;;;;;;4.35;2.15;;;52.50;6.00;;;;;;5073987;28;20032;-73
2022/05/18 13:08:55;;;;;;;6.15;2.58;;;52.80;5.80;;;;;;5073991;28;20033;-74
2022/05/18 13:11:45;;;;;;;5.07;2.20;;;52.50;5.90;;;;;;5073761;28;20294;-76
2022/05/18 13:15:10;;;;;;;4.57;2.08;;;52.60;5.80;;;;;;5076012;28;20036;-73
2022/05/18 13:18:23;;;;;;;7.10;3.10;;;53.10;6.30;;;;;;5095834;28;20089;-76
2022/05/18 13:21:19;;;;;;;5.05;2.60;;;52.90;6.10;;;;;;5095271;28;20106;-76
2022/05/18 13:24:02;;;;;;;3.80;2.50;;;53.20;6.00;;;;;;5095545;28;20102;-73
2022/05/18 13:26:40;;;;;;;6.40;2.70;;;52.50;5.90;;;;;;5077120;28;20562;-76
2022/05/18 13:29:28;;;;;;;3.83;2.45;;;52.70;5.90;;;;;;5077441;28;20111;-73
2022/05/18 13:32:16;;;;;;;6.55;2.60;;;52.60;6.10;;;;;;5076927;28;20512;-75
2022/05/18 13:35:21;;;;;;;7.20;2.75;;;52.50;6.20;;;;;;5077406;28;20032;-73
2022/05/18 13:38:25;;;;;;;6.15;2.60;;;52.00;6.30;;;;;;5077337;28;20024;-73
2022/05/18 13:41:12;;;;;;;5.80;2.10;;;51.60;5.90;;;;;;5076719;28;20093;-73
2022/05/18 13:44:02;;;;;;;3.60;2.05;;;51.30;6.10;;;;;;5077185;28;20377;-75
2022/05/18 13:46:30;;;;;;;3.88;2.13;;;51.60;5.80;;;;;;5093847;28;20082;-76
2022/05/18 13:49:18;;;;;;;5.32;1.95;;;51.60;5.30;;;;;;5076461;28;20447;-73
2022/05/18 13:51:50;;;;;;;5.85;2.25;;;50.80;5.30;;;;;;5076563;28;20039;-73
2022/05/18 13:54:21;;;;;;;3.60;1.90;;;50.20;5.90;;;;;;5076786;28;20028;-73
2022/05/18 13:56:54;;;;;;;18.65;3.20;;;50.10;5.90;;;;;;5058954;28;20040;-74
2022/05/18 13:59:47;;;;;;;4.05;2.08;;;49.90;5.70;;;;;;5040316;28;20074;-75
2022/05/18 14:02:35;;;;;;;9.25;2.50;;;49.10;6.60;;;;;;5076514;28;20036;-74
2022/05/18 14:05:15;;;;;;;3.65;1.60;;;46.80;6.80;;;;;;5076991;28;20178;-78
2022/05/18 14:07:49;;;;;;;4.22;1.80;;;44.10;8.20;;;;;;5076926;28;20043;-73
2022/05/18 14:10:37;;;;;;;3.43;1.57;;;42.30;8.90;;;;;;5076831;28;20028;-77
2022/05/18 14:13:05;;;;;;;7.40;1.73;;;40.80;9.60;;;;;;5076556;28;20051;-73
2022/05/18 14:15:37;;;;;;;3.65;1.42;;;39.30;10.60;;;;;;5075410;28;20036;-78